Time;durP1;ratioP1;P1;durP2;ratioP2;P2;SDS_P1;SDS_P2;PMS_P1;PMS_P2;Temp;Humidity;BMP_temperature;BMP_pressure;BME280_temperature;BME280_humidity;BME280_pressure;Samples;Min_cycle;Max_cycle;Signal;HPM_P1;HPM_P2
2023/08/19 00:01:18;;;;;;;12.50;6.70;;;;;;;22.61;100.00;101230.58;108244;1258;61342;-90
2023/08/19 00:04:06;;;;;;;8.80;6.30;;;;;;;22.60;100.00;101232.45;106027;1262;75568;-91
2023/08/19 00:06:54;;;;;;;11.70;6.70;;;;;;;22.70;100.00;101231.95;105926;1260;68723;-91
2023/08/19 00:09:42;;;;;;;9.30;6.80;;;;;;;22.77;100.00;101233.30;106400;1260;73605;-90
2023/08/19 00:12:31;;;;;;;11.50;6.10;;;;;;;22.82;100.00;101227.98;105902;1257;61304;-83
2023/08/19 00:15:19;;;;;;;9.00;5.60;;;;;;;22.84;100.00;101229.98;105893;1259;61282;-84
2023/08/19 00:18:07;;;;;;;11.80;7.10;;;;;;;22.84;100.00;101230.86;105828;1258;74373;-91
2023/08/19 00:20:55;;;;;;;12.30;8.00;;;;;;;22.75;100.00;101229.34;105886;1260;71997;-91
2023/08/19 00:23:44;;;;;;;9.10;6.40;;;;;;;22.68;100.00;101231.88;106130;1262;72358;-90
2023/08/19 00:26:31;;;;;;;9.70;6.80;;;;;;;22.65;100.00;101225.97;106099;1260;61343;-85
2023/08/19 00:29:21;;;;;;;11.90;7.70;;;;;;;22.70;100.00;101220.88;105862;1257;61286;-83
2023/08/19 00:32:09;;;;;;;8.50;5.70;;;;;;;22.70;100.00;101221.52;106022;1263;75573;-83
2023/08/19 00:35:01;;;;;;;10.10;5.80;;;;;;;22.68;100.00;101219.38;106205;1257;69766;-83
2023/08/19 00:37:49;;;;;;;10.80;7.80;;;;;;;22.69;100.00;101215.55;105860;1262;73927;-90
2023/08/19 00:40:37;;;;;;;7.40;5.80;;;;;;;22.73;100.00;101219.73;105833;1262;61976;-90
2023/08/19 00:43:26;;;;;;;10.70;6.80;;;;;;;22.75;100.00;101213.28;106081;1257;61993;-90
2023/08/19 00:46:14;;;;;;;8.80;6.10;;;;;;;22.72;100.00;101213.71;105962;1259;75761;-90
2023/08/19 00:49:02;;;;;;;11.40;6.50;;;;;;;22.72;100.00;101211.66;106020;1261;69692;-84
2023/08/19 00:51:50;;;;;;;9.40;5.90;;;;;;;22.66;100.00;101213.59;105993;1259;73677;-90
2023/08/19 00:54:38;;;;;;;8.10;5.90;;;;;;;22.71;100.00;101209.14;105908;1258;63018;-90
2023/08/19 00:57:27;;;;;;;8.10;6.40;;;;;;;22.61;100.00;101205.44;105980;1260;61325;-89
2023/08/19 01:00:15;;;;;;;12.30;7.30;;;;;;;22.58;100.00;101207.40;105944;1258;74720;-90
2023/08/19 01:03:04;;;;;;;9.30;7.10;;;;;;;22.56;100.00;101201.39;105977;1257;69726;-83
2023/08/19 01:06:12;;;;;;;10.30;7.00;;;;;;;22.56;100.00;101203.29;105880;1260;72346;-83
2023/08/19 01:09:31;;;;;;;11.20;7.10;;;;;;;22.48;100.00;101205.92;105882;1262;61411;-83
2023/08/19 01:12:40;;;;;;;9.50;7.20;;;;;;;22.45;100.00;101199.14;105882;1257;61468;-90
2023/08/19 01:15:31;;;;;;;9.90;6.20;;;;;;;22.47;100.00;101197.23;105848;1260;75843;-83
2023/08/19 01:18:19;;;;;;;9.20;6.40;;;;;;;22.39;100.00;101198.90;105780;1265;67520;-90
2023/08/19 01:21:08;;;;;;;10.60;6.30;;;;;;;22.35;100.00;101199.73;106084;1262;73586;-83
2023/08/19 01:23:58;;;;;;;11.70;6.90;;;;;;;22.29;100.00;101197.54;105852;1263;61312;-90
2023/08/19 01:26:46;;;;;;;9.20;6.60;;;;;;;22.27;100.00;101195.95;105705;1262;61269;-85
2023/08/19 01:29:34;;;;;;;10.80;7.50;;;;;;;22.29;100.00;101192.14;105809;1262;74475;-90
2023/08/19 01:32:23;;;;;;;10.00;6.50;;;;;;;22.26;100.00;101192.64;105793;1264;69397;-88
2023/08/19 01:35:12;;;;;;;10.90;7.40;;;;;;;22.23;100.00;101192.84;105858;1257;71865;-83
2023/08/19 01:38:20;;;;;;;10.10;6.70;;;;;;;22.23;100.00;101194.97;105991;1262;61843;-90
2023/08/19 01:41:09;;;;;;;13.00;6.70;;;;;;;22.24;100.00;101186.44;105815;1263;61341;-90
2023/08/19 01:44:00;;;;;;;9.70;6.50;;;;;;;22.23;100.00;101184.16;105893;1257;75550;-91
2023/08/19 01:46:47;;;;;;;11.70;6.50;;;;;;;22.21;100.00;101178.77;105728;1265;67338;-90
2023/08/19 01:49:36;;;;;;;9.70;6.10;;;;;;;22.22;100.00;101176.02;106026;1262;72561;-89
2023/08/19 01:52:24;;;;;;;8.10;6.00;;;;;;;22.18;100.00;101175.22;106280;1262;62840;-90
2023/08/19 02:01:33;;;;;;;9.80;6.10;;;;;;;22.06;100.00;101180.57;103243;1292;601864;-89
2023/08/19 02:04:21;;;;;;;12.00;6.20;;;;;;;22.09;100.00;101179.89;105404;1268;64211;-89
2023/08/19 02:07:10;;;;;;;11.00;6.10;;;;;;;22.12;100.00;101181.83;105475;1266;59286;-84
2023/08/19 02:09:59;;;;;;;9.20;6.00;;;;;;;22.03;100.00;101181.33;105402;1266;72245;-83
2023/08/19 02:12:49;;;;;;;8.20;5.70;;;;;;;22.00;100.00;101183.66;105182;1268;72011;-90
2023/08/19 02:15:38;;;;;;;10.20;6.20;;;;;;;21.93;100.00;101187.20;105326;1267;219062;-83
2023/08/19 02:18:28;;;;;;;8.30;6.00;;;;;;;21.89;100.00;101189.69;105442;1270;61984;-85
2023/08/19 02:21:16;;;;;;;10.20;6.90;;;;;;;21.79;100.00;101186.70;105419;1265;63425;-90
2023/08/19 02:24:06;;;;;;;9.70;6.70;;;;;;;21.80;100.00;101192.75;105456;1265;72266;-90
2023/08/19 02:26:55;;;;;;;11.90;6.70;;;;;;;21.88;100.00;101193.41;105398;1271;68688;-84
2023/08/19 02:29:43;;;;;;;11.70;7.30;;;;;;;21.82;100.00;101193.15;105300;1263;75330;-90
2023/08/19 02:32:32;;;;;;;11.60;7.60;;;;;;;21.89;100.00;101194.15;105512;1264;62144;-89
2023/08/19 02:35:21;;;;;;;10.50;6.70;;;;;;;21.95;100.00;101195.65;105420;1263;62268;-83
2023/08/19 02:38:11;;;;;;;11.80;7.10;;;;;;;21.94;100.00;101195.03;105494;1263;75120;-89
2023/08/19 02:40:59;;;;;;;12.20;8.30;;;;;;;21.98;100.00;101196.25;105677;1264;68985;-90
2023/08/19 02:43:49;;;;;;;11.60;7.30;;;;;;;22.01;100.00;101194.20;105585;1268;74673;-89
2023/08/19 02:46:38;;;;;;;11.30;7.80;;;;;;;22.01;100.00;101195.80;105685;1263;62607;-83
2023/08/19 02:49:27;;;;;;;13.00;8.40;;;;;;;22.04;100.00;101199.80;105645;1265;61881;-83
2023/08/19 02:52:16;;;;;;;14.50;8.70;;;;;;;22.13;100.00;101199.59;106455;1251;73819;-87
2023/08/19 02:55:05;;;;;;;12.00;9.30;;;;;;;22.17;100.00;101201.64;106392;1254;71634;-83
2023/08/19 02:57:54;;;;;;;15.50;9.30;;;;;;;22.19;100.00;101200.23;106489;1255;76247;-83
2023/08/19 03:00:48;;;;;;;13.80;8.60;;;;;;;22.17;100.00;101207.93;106515;1254;62382;-89
2023/08/19 03:03:37;;;;;;;16.70;9.90;;;;;;;22.23;100.00;101214.62;106355;1253;59503;-89
2023/08/19 03:06:26;;;;;;;17.30;9.70;;;;;;;22.27;100.00;101217.34;106291;1252;76380;-90
2023/08/19 03:09:14;;;;;;;13.90;9.90;;;;;;;22.32;100.00;101213.95;106332;1251;68479;-89
2023/08/19 03:12:03;;;;;;;17.00;10.70;;;;;;;22.40;100.00;101214.31;106475;1251;72692;-88
2023/08/19 03:14:52;;;;;;;17.40;10.60;;;;;;;22.59;100.00;101215.88;106349;1253;62692;-83
2023/08/19 03:17:41;;;;;;;17.80;10.70;;;;;;;22.59;100.00;101223.28;106539;1252;63760;-89
2023/08/19 03:20:30;;;;;;;19.30;11.80;;;;;;;22.70;100.00;101223.52;106449;1257;75134;-88
2023/08/19 03:23:19;;;;;;;18.80;11.60;;;;;;;22.73;100.00;101224.82;106514;1251;67577;-83
2023/08/19 03:26:08;;;;;;;21.40;12.80;;;;;;;22.74;100.00;101222.08;106409;1251;75776;-88
2023/08/19 03:28:57;;;;;;;20.30;12.10;;;;;;;22.84;100.00;101220.27;106291;1253;65180;-88
2023/08/19 03:31:46;;;;;;;18.80;12.00;;;;;;;22.96;100.00;101222.21;106325;1254;60010;-88
2023/08/19 03:34:35;;;;;;;22.40;12.50;;;;;;;22.99;100.00;101219.52;106447;1256;76511;-83
2023/08/19 03:37:24;;;;;;;18.70;11.80;;;;;;;23.06;100.00;101213.34;106459;1251;67560;-88
2023/08/19 03:40:13;;;;;;;18.20;11.90;;;;;;;23.24;100.00;101213.32;106562;1253;71308;-87
2023/08/19 03:43:03;;;;;;;16.40;11.20;;;;;;;23.25;100.00;101219.54;106314;1251;63978;-87
2023/08/19 03:45:52;;;;;;;16.80;12.00;;;;;;;23.43;100.00;101212.98;106421;1251;62600;-84
2023/08/19 03:48:41;;;;;;;20.20;12.10;;;;;;;23.53;100.00;101214.17;106473;1251;74112;-88
2023/08/19 03:51:30;;;;;;;20.30;12.10;;;;;;;23.69;100.00;101216.86;106477;1257;68383;-84
2023/08/19 03:54:18;;;;;;;17.50;11.60;;;;;;;23.83;100.00;101213.63;106260;1255;73422;-86
2023/08/19 03:57:07;;;;;;;17.70;11.20;;;;;;;23.94;100.00;101210.80;106512;1254;60765;-88
2023/08/19 03:59:56;;;;;;;21.20;12.00;;;;;;;24.10;100.00;101207.36;106872;1256;61137;-84
2023/08/19 04:02:45;;;;;;;22.40;11.60;;;;;;;24.23;100.00;101205.83;106527;1250;74399;-83
2023/08/19 04:05:33;;;;;;;18.40;11.00;;;;;;;24.58;100.00;101207.65;106670;1252;72248;-88
2023/08/19 04:08:22;;;;;;;17.70;11.30;;;;;;;24.82;100.00;101209.18;106325;1251;65771;-87
2023/08/19 04:11:11;;;;;;;20.70;11.30;;;;;;;24.99;100.00;101207.56;106487;1254;59656;-87
2023/08/19 04:14:02;;;;;;;17.90;11.00;;;;;;;25.07;100.00;101210.98;106397;1252;59649;-88
2023/08/19 04:16:51;;;;;;;14.90;10.10;;;;;;;25.10;100.00;101211.03;106251;1254;65515;-88
2023/08/19 04:19:40;;;;;;;17.60;10.80;;;;;;;25.13;100.00;101210.48;106154;1253;61712;-88
2023/08/19 04:22:29;;;;;;;20.80;11.30;;;;;;;25.20;100.00;101217.32;106257;1256;63808;-87
2023/08/19 04:25:17;;;;;;;15.20;10.40;;;;;;;25.27;100.00;101213.73;106393;1257;59587;-87
2023/08/19 04:28:06;;;;;;;18.60;11.30;;;;;;;25.32;100.00;101214.10;106469;1251;59490;-87
2023/08/19 04:31:06;;;;;;;18.10;11.20;;;;;;;25.43;100.00;101213.58;106454;1251;65535;-84
2023/08/19 04:34:10;;;;;;;16.10;10.50;;;;;;;25.61;100.00;101218.56;106492;1251;62075;-84
2023/08/19 04:36:58;;;;;;;17.80;11.20;;;;;;;25.72;100.00;101217.88;106318;1251;63829;-88
2023/08/19 04:39:47;;;;;;;16.50;11.30;;;;;;;25.85;100.00;101216.17;106314;1254;59973;-85
2023/08/19 04:42:39;;;;;;;15.50;10.40;;;;;;;26.04;100.00;101211.89;106438;1253;59746;-87
2023/08/19 04:45:29;;;;;;;14.80;9.90;;;;;;;26.15;100.00;101211.27;106568;1252;65637;-85
2023/08/19 04:48:18;;;;;;;15.10;10.40;;;;;;;26.36;100.00;101214.15;106451;1251;61166;-85
2023/08/19 04:51:07;;;;;;;16.90;10.50;;;;;;;26.66;100.00;101219.59;106403;1252;63798;-87
2023/08/19 04:53:56;;;;;;;16.20;10.00;;;;;;;26.82;100.00;101210.13;106403;1254;59730;-86
2023/08/19 04:56:45;;;;;;;19.40;10.80;;;;;;;26.95;100.00;101209.16;106423;1251;59579;-87
2023/08/19 04:59:33;;;;;;;15.40;10.40;;;;;;;27.10;100.00;101210.55;106501;1257;65571;-88
2023/08/19 05:02:22;;;;;;;12.50;9.30;;;;;;;27.26;100.00;101211.97;106237;1253;61144;-85
2023/08/19 05:05:11;;;;;;;11.70;9.40;;;;;;;27.43;100.00;101213.04;106256;1253;65915;-88
2023/08/19 05:08:00;;;;;;;12.40;9.00;;;;;;;27.59;100.00;101209.86;106299;1253;59705;-87
2023/08/19 05:10:50;;;;;;;15.00;10.00;;;;;;;27.74;100.00;101208.82;106205;1254;59371;-87
2023/08/19 05:13:39;;;;;;;13.10;9.50;;;;;;;27.94;100.00;101205.82;106371;1253;65004;-85
2023/08/19 05:16:30;;;;;;;12.50;8.80;;;;;;;28.13;100.00;101209.94;106483;1253;62232;-85
2023/08/19 05:19:19;;;;;;;12.70;9.20;;;;;;;28.32;100.00;101214.42;106320;1259;65910;-86
2023/08/19 05:22:09;;;;;;;12.70;9.00;;;;;;;28.52;100.00;101216.86;106227;1254;59640;-87
2023/08/19 05:24:57;;;;;;;12.10;8.60;;;;;;;28.67;100.00;101217.36;106290;1253;59640;-87
2023/08/19 05:27:46;;;;;;;13.80;9.20;;;;;;;28.77;100.00;101222.11;106271;1258;66629;-85
2023/08/19 05:30:35;;;;;;;15.30;9.50;;;;;;;28.94;100.00;101220.36;106313;1253;59747;-89
2023/08/19 05:33:24;;;;;;;12.20;8.70;;;;;;;29.09;100.00;101222.61;106377;1254;62583;-89
2023/08/19 05:36:13;;;;;;;13.90;9.00;;;;;;;29.19;100.00;101224.32;106278;1257;59705;-86
2023/08/19 05:39:03;;;;;;;12.50;8.50;;;;;;;29.27;100.00;101219.72;106399;1253;59531;-86
2023/08/19 05:41:52;;;;;;;11.80;8.40;;;;;;;29.35;100.00;101223.26;106226;1253;64105;-86
2023/08/19 05:44:41;;;;;;;16.00;8.90;;;;;;;29.53;100.00;101221.54;106381;1253;60804;-86
2023/08/19 05:47:29;;;;;;;12.90;9.00;;;;;;;29.68;100.00;101218.92;106174;1253;62550;-86
2023/08/19 05:50:20;;;;;;;12.80;8.90;;;;;;;29.79;100.00;101218.84;106225;1253;59636;-87
2023/08/19 05:53:09;;;;;;;12.60;9.50;;;;;;;29.87;100.00;101217.44;106222;1253;59570;-88
2023/08/19 05:55:57;;;;;;;14.60;8.70;;;;;;;29.99;100.00;101216.38;106286;1253;66617;-87
2023/08/19 05:58:46;;;;;;;12.40;9.10;;;;;;;30.08;100.00;101219.48;106295;1257;59798;-87
2023/08/19 06:01:35;;;;;;;13.10;8.60;;;;;;;30.24;100.00;101223.21;106321;1252;62963;-89
2023/08/19 06:04:24;;;;;;;12.50;8.60;;;;;;;30.29;100.00;101225.34;106405;1254;60327;-88
2023/08/19 06:07:15;;;;;;;12.20;9.20;;;;;;;30.31;100.00;101219.30;106437;1252;59637;-89
2023/08/19 06:10:03;;;;;;;11.20;8.20;;;;;;;30.41;100.00;101221.43;106441;1253;66473;-87
2023/08/19 06:12:53;;;;;;;13.00;8.50;;;;;;;30.54;100.00;101223.89;106271;1253;62187;-86
2023/08/19 06:15:42;;;;;;;12.40;8.90;;;;;;;30.67;100.00;101222.23;106356;1254;63814;-86
2023/08/19 06:18:31;;;;;;;12.50;8.80;;;;;;;30.80;100.00;101222.04;106290;1253;59640;-86
2023/08/19 06:21:20;;;;;;;11.80;8.20;;;;;;;30.91;100.00;101220.22;106310;1257;59560;-87
2023/08/19 06:24:09;;;;;;;11.30;8.60;;;;;;;31.09;100.00;101215.64;106191;1256;66898;-88
2023/08/19 06:26:57;;;;;;;10.60;8.20;;;;;;;31.44;100.00;101216.47;106373;1253;61308;-86
2023/08/19 06:29:46;;;;;;;12.30;9.10;;;;;;;31.61;100.00;101216.79;106359;1256;62550;-87
2023/08/19 06:32:35;;;;;;;12.60;8.40;;;;;;;31.60;100.00;101219.53;106421;1254;59747;-87
2023/08/19 06:35:24;;;;;;;13.90;8.40;;;;;;;31.60;100.00;101221.38;106298;1257;59593;-86
2023/08/19 06:38:20;;;;;;;13.20;8.50;;;;;;;31.75;100.00;101222.00;106406;1252;64160;-87
2023/08/19 06:41:09;;;;;;;10.40;8.30;;;;;;;31.93;100.00;101224.23;106448;1257;62161;-86
2023/08/19 06:43:59;;;;;;;12.10;7.90;;;;;;;32.04;100.00;101223.98;106402;1253;63809;-86
2023/08/19 06:46:48;;;;;;;13.10;8.60;;;;;;;32.17;100.00;101226.27;106274;1253;60498;-86
2023/08/19 06:49:37;;;;;;;14.40;8.40;;;;;;;32.30;100.00;101229.85;106482;1253;60527;-87
2023/08/19 06:52:26;;;;;;;11.20;8.10;;;;;;;32.46;100.00;101231.82;106215;1257;65083;-86
2023/08/19 06:55:15;;;;;;;11.70;8.40;;;;;;;32.42;100.00;101229.23;106173;1257;61571;-88
2023/08/19 06:58:07;;;;;;;11.00;8.40;;;;;;;32.55;100.00;101230.89;106250;1254;65678;-85
2023/08/19 07:01:00;;;;;;;10.50;8.50;;;;;;;32.86;100.00;101230.46;106183;1257;60611;-86
2023/08/19 07:03:53;;;;;;;14.40;8.20;;;;;;;33.10;100.00;101230.88;106165;1256;60329;-87
2023/08/19 07:06:43;;;;;;;11.20;8.20;;;;;;;33.38;100.00;101237.38;106251;1253;67036;-86
2023/08/19 07:09:33;;;;;;;12.70;8.20;;;;;;;33.67;99.22;101243.45;106111;1253;61203;-86
2023/08/19 07:12:22;;;;;;;15.50;8.20;;;;;;;33.90;96.13;101244.92;106193;1259;65685;-86
2023/08/19 07:15:12;;;;;;;13.70;8.70;;;;;;;33.99;95.53;101245.70;106257;1253;60514;-87
2023/08/19 07:18:00;;;;;;;10.70;7.70;;;;;;;34.06;93.85;101242.58;106366;1253;60536;-90
2023/08/19 07:20:50;;;;;;;9.40;8.10;;;;;;;34.14;92.04;101239.27;106371;1254;66975;-88
2023/08/19 07:23:43;;;;;;;12.70;8.30;;;;;;;34.13;91.38;101238.54;106128;1256;60680;-86
2023/08/19 07:26:32;;;;;;;11.20;7.90;;;;;;;34.25;92.05;101240.41;106240;1259;63821;-87
2023/08/19 07:29:21;;;;;;;13.00;8.10;;;;;;;34.43;91.00;101235.56;106323;1253;60503;-88
2023/08/19 07:32:10;;;;;;;9.40;7.80;;;;;;;34.65;86.29;101235.44;106256;1253;60549;-88
2023/08/19 07:34:59;;;;;;;14.90;7.50;;;;;;;34.86;82.88;101236.60;106393;1253;67031;-88
2023/08/19 07:37:48;;;;;;;10.70;8.10;;;;;;;34.98;81.72;101238.70;106203;1258;61851;-89
2023/08/19 07:40:36;;;;;;;14.70;8.90;;;;;;;35.10;79.88;101239.90;106574;1254;66276;-88
2023/08/19 07:43:25;;;;;;;11.50;7.20;;;;;;;35.12;78.52;101243.21;106511;1256;60258;-87
2023/08/19 07:46:17;;;;;;;11.90;7.90;;;;;;;35.30;77.19;101243.66;106317;1253;60447;-87
2023/08/19 07:49:06;;;;;;;10.30;7.00;;;;;;;35.43;76.39;101241.48;106610;1253;67642;-87
2023/08/19 07:51:55;;;;;;;11.50;7.40;;;;;;;35.52;76.28;101244.25;106448;1253;62289;-88
2023/08/19 07:54:43;;;;;;;12.10;7.20;;;;;;;35.69;75.24;101238.77;106656;1256;63030;-87
2023/08/19 07:57:35;;;;;;;;;;;;;;;35.86;71.05;101240.97;106774;1257;60045;-89
2023/08/19 08:00:24;;;;;;;7.40;6.70;;;;;;;35.99;71.74;101245.19;106521;1251;59280;-87
2023/08/19 08:03:13;;;;;;;9.00;6.90;;;;;;;36.19;69.42;101244.23;106523;1256;64824;-89
2023/08/19 08:06:02;;;;;;;9.80;6.80;;;;;;;36.38;68.46;101243.84;106550;1256;61666;-88
2023/08/19 08:08:50;;;;;;;8.70;6.30;;;;;;;36.56;65.26;101242.64;106469;1251;62519;-87
2023/08/19 08:11:41;;;;;;;13.60;7.60;;;;;;;36.68;65.88;101244.59;106490;1257;60894;-88
2023/08/19 08:14:29;;;;;;;10.00;6.50;;;;;;;36.75;62.44;101245.16;106408;1250;59410;-89
2023/08/19 08:17:18;;;;;;;10.20;6.40;;;;;;;36.74;64.83;101241.91;106645;1251;66327;-91
2023/08/19 08:20:08;;;;;;;10.90;7.10;;;;;;;36.63;63.07;101243.48;106476;1252;61991;-87
2023/08/19 08:22:56;;;;;;;10.50;6.80;;;;;;;36.50;64.91;101239.92;106470;1253;62528;-89
2023/08/19 08:25:45;;;;;;;11.00;6.80;;;;;;;36.34;64.22;101236.52;106597;1251;62088;-90
2023/08/19 08:28:34;;;;;;;8.50;6.70;;;;;;;36.31;62.94;101233.26;106777;1251;60370;-88
2023/08/19 08:31:23;;;;;;;10.00;6.70;;;;;;;36.20;61.22;101231.13;106802;1250;64373;-89
2023/08/19 08:34:12;;;;;;;11.40;6.80;;;;;;;36.14;61.39;101227.02;106544;1256;62269;-90
2023/08/19 08:37:01;;;;;;;12.70;7.30;;;;;;;36.14;62.41;101230.29;106681;1251;66174;-86
2023/08/19 08:39:49;;;;;;;11.40;7.20;;;;;;;36.01;64.06;101229.06;106457;1251;60425;-88
2023/08/19 08:42:38;;;;;;;11.00;7.30;;;;;;;36.13;65.99;101228.09;106503;1257;60529;-89
2023/08/19 08:45:27;;;;;;;11.60;7.60;;;;;;;36.33;64.12;101227.58;106437;1252;67403;-87
2023/08/19 08:48:16;;;;;;;10.10;7.60;;;;;;;36.37;65.53;101229.96;106579;1257;60400;-88
2023/08/19 08:51:05;;;;;;;9.60;6.60;;;;;;;36.34;62.57;101228.89;106489;1257;65816;-89
2023/08/19 08:53:55;;;;;;;12.30;7.50;;;;;;;36.26;63.23;101224.91;106488;1257;59692;-88
2023/08/19 08:56:46;;;;;;;10.80;7.00;;;;;;;36.33;64.97;101224.98;106516;1251;59373;-89
2023/08/19 08:59:35;;;;;;;10.90;6.70;;;;;;;36.40;64.63;101224.67;106491;1251;64962;-89
2023/08/19 09:02:25;;;;;;;10.40;6.30;;;;;;;36.56;64.18;101225.16;106548;1256;61712;-88
2023/08/19 09:05:13;;;;;;;13.00;6.80;;;;;;;36.58;60.53;101227.81;106637;1254;65230;-88
2023/08/19 09:08:03;;;;;;;9.40;6.60;;;;;;;36.48;59.88;101226.63;106355;1256;60578;-89
2023/08/19 09:10:51;;;;;;;10.40;6.80;;;;;;;36.44;62.17;101223.39;106454;1251;59431;-87
2023/08/19 09:13:40;;;;;;;9.80;6.50;;;;;;;36.55;61.59;101223.73;106618;1256;65755;-88
2023/08/19 09:16:29;;;;;;;10.10;7.30;;;;;;;36.69;61.00;101222.12;106311;1251;62339;-89
2023/08/19 09:19:18;;;;;;;9.50;6.60;;;;;;;36.61;60.65;101221.88;106530;1251;65100;-90
2023/08/19 09:22:16;;;;;;;12.40;6.70;;;;;;;36.53;61.73;101219.91;106387;1252;60598;-89
2023/08/19 09:25:17;;;;;;;11.30;6.00;;;;;;;36.63;60.37;101219.64;106581;1252;60848;-87
2023/08/19 09:28:06;;;;;;;9.70;7.10;;;;;;;36.74;59.34;101214.67;106455;1257;67425;-88
2023/08/19 09:30:55;;;;;;;10.40;6.40;;;;;;;36.96;57.41;101213.00;106544;1251;62170;-86
2023/08/19 09:33:44;;;;;;;7.90;6.20;;;;;;;37.09;54.48;101213.94;106407;1257;62491;-87
2023/08/19 09:36:33;;;;;;;9.50;6.30;;;;;;;37.21;54.88;101208.02;106500;1257;60497;-88
2023/08/19 09:39:25;;;;;;;11.90;6.00;;;;;;;37.25;54.95;101210.60;106626;1251;60458;-89
2023/08/19 09:42:14;;;;;;;9.10;6.90;;;;;;;37.20;54.34;101210.98;106624;1256;66970;-88
2023/08/19 09:45:04;;;;;;;8.30;6.60;;;;;;;37.14;56.58;101209.83;106618;1250;62537;-90
2023/08/19 09:47:53;;;;;;;15.10;6.90;;;;;;;37.10;55.58;101208.64;106581;1251;64697;-89
2023/08/19 09:50:44;;;;;;;7.20;6.20;;;;;;;37.10;56.18;101209.13;106826;1256;60370;-89
2023/08/19 09:53:32;;;;;;;13.90;6.80;;;;;;;37.14;52.89;101208.85;106863;1252;60520;-89
2023/08/19 09:56:25;;;;;;;9.00;6.10;;;;;;;37.21;51.86;101197.27;106707;1251;66924;-88
2023/08/19 09:59:14;;;;;;;9.70;6.20;;;;;;;37.29;51.96;101195.11;106795;1257;61059;-88
2023/08/19 10:02:03;;;;;;;9.60;6.00;;;;;;;37.34;51.28;101193.29;106619;1253;66005;-88
2023/08/19 10:04:53;;;;;;;10.20;6.20;;;;;;;37.31;50.94;101192.31;106625;1252;60357;-90
2023/08/19 10:07:47;;;;;;;8.90;5.80;;;;;;;37.34;49.25;101191.73;106398;1251;60372;-88
2023/08/19 10:10:37;;;;;;;8.70;6.20;;;;;;;37.42;48.35;101188.50;106496;1254;67320;-89
2023/08/19 10:13:26;;;;;;;7.60;5.80;;;;;;;37.62;46.72;101189.87;106406;1252;60376;-90
2023/08/19 10:16:15;;;;;;;9.00;6.50;;;;;;;37.74;46.51;101186.75;106514;1256;66388;-87
2023/08/19 10:19:04;;;;;;;11.20;6.10;;;;;;;37.83;47.09;101185.70;106614;1253;60436;-87
2023/08/19 10:21:52;;;;;;;11.30;6.00;;;;;;;37.90;45.33;101185.50;106425;1252;59307;-90
2023/08/19 10:24:41;;;;;;;8.30;5.90;;;;;;;37.87;44.42;101186.95;106548;1257;66069;-90
2023/08/19 10:27:30;;;;;;;8.10;6.10;;;;;;;37.90;43.90;101186.08;106562;1252;60688;-90
2023/08/19 10:30:28;;;;;;;11.20;6.10;;;;;;;37.81;45.91;101181.69;106539;1256;65316;-91
2023/08/19 10:33:28;;;;;;;10.90;6.50;;;;;;;37.89;47.54;101180.07;106486;1253;60955;-90
2023/08/19 10:36:18;;;;;;;9.20;6.10;;;;;;;38.00;47.61;101186.77;106699;1251;60465;-90
2023/08/19 10:39:16;;;;;;;8.10;5.60;;;;;;;38.02;44.01;101190.86;106575;1255;68100;-89
2023/08/19 10:42:05;;;;;;;12.80;6.00;;;;;;;38.03;42.90;101187.42;106622;1254;60545;-91
2023/08/19 10:44:54;;;;;;;8.90;5.70;;;;;;;38.17;45.02;101184.98;106434;1254;73641;-90
2023/08/19 10:47:43;;;;;;;13.30;6.30;;;;;;;38.21;43.89;101180.21;106500;1252;60556;-88
2023/08/19 10:50:34;;;;;;;9.20;5.70;;;;;;;38.27;42.76;101178.54;106375;1253;60664;-89
2023/08/19 10:53:24;;;;;;;10.90;5.90;;;;;;;38.33;42.57;101172.67;106615;1257;66855;-89
2023/08/19 10:56:13;;;;;;;11.30;5.50;;;;;;;38.46;41.93;101167.79;106603;1257;62135;-88
2023/08/19 10:59:02;;;;;;;9.00;5.40;;;;;;;38.65;41.86;101167.27;106675;1253;66443;-91
2023/08/19 11:01:50;;;;;;;10.30;5.30;;;;;;;38.85;40.20;101163.45;106551;1253;60529;-90
2023/08/19 11:04:41;;;;;;;9.70;5.60;;;;;;;38.92;39.70;101158.58;106481;1257;60517;-89
2023/08/19 11:07:33;;;;;;;11.00;5.30;;;;;;;38.82;40.41;101158.48;106526;1257;67090;-92
2023/08/19 11:10:22;;;;;;;7.20;4.90;;;;;;;38.88;40.95;101155.92;106719;1253;60474;-87
2023/08/19 11:13:10;;;;;;;9.60;5.00;;;;;;;39.05;40.00;101160.35;106524;1254;66228;-88
2023/08/19 11:16:04;;;;;;;11.90;5.20;;;;;;;38.85;36.90;101159.70;106578;1254;60453;-88
2023/08/19 11:18:54;;;;;;;7.80;5.40;;;;;;;38.60;38.55;101160.02;106590;1257;60444;-92
2023/08/19 11:21:42;;;;;;;8.70;5.10;;;;;;;38.45;39.13;101159.08;106482;1257;66335;-88
2023/08/19 11:24:34;;;;;;;7.30;4.80;;;;;;;38.47;39.29;101156.33;106468;1258;60668;-89
2023/08/19 11:27:23;;;;;;;11.40;4.90;;;;;;;38.55;37.95;101150.80;106574;1255;65556;-87
2023/08/19 11:30:14;;;;;;;6.00;4.60;;;;;;;38.63;37.49;101149.88;106432;1251;60445;-87
2023/08/19 11:33:02;;;;;;;10.30;4.90;;;;;;;38.83;36.73;101146.94;106382;1254;60474;-91
2023/08/19 11:35:52;;;;;;;7.50;5.00;;;;;;;38.96;35.97;101143.17;106418;1251;67147;-87
2023/08/19 11:38:41;;;;;;;6.30;4.30;;;;;;;39.15;36.47;101138.12;106369;1253;61175;-89
2023/08/19 11:41:30;;;;;;;7.90;4.60;;;;;;;39.10;37.07;101132.59;106440;1253;66347;-89
2023/08/19 11:44:20;;;;;;;5.70;4.70;;;;;;;39.07;36.87;101134.23;106428;1254;60552;-90
2023/08/19 11:47:08;;;;;;;7.70;4.60;;;;;;;38.95;37.59;101132.51;106503;1256;60472;-90
2023/08/19 11:49:57;;;;;;;7.90;4.50;;;;;;;39.03;36.71;101132.83;106619;1254;64935;-89
2023/08/19 11:52:50;;;;;;;6.60;4.70;;;;;;;39.11;35.61;101127.73;106554;1252;61223;-90
2023/08/19 11:55:38;;;;;;;6.40;4.80;;;;;;;39.36;35.53;101124.59;106511;1257;66156;-91
2023/08/19 11:58:39;;;;;;;8.80;4.70;;;;;;;39.48;34.70;101125.11;106594;1256;60395;-93
2023/08/19 12:01:28;;;;;;;10.10;4.80;;;;;;;39.62;34.29;101121.23;106555;1253;61060;-90
2023/08/19 12:04:17;;;;;;;7.30;4.80;;;;;;;39.74;33.54;101119.10;106454;1256;67184;-89
2023/08/19 12:07:09;;;;;;;7.50;5.10;;;;;;;39.94;33.28;101115.33;106413;1256;61845;-89
2023/08/19 12:09:58;;;;;;;7.10;4.70;;;;;;;40.24;33.99;101113.94;106455;1256;63171;-90
2023/08/19 12:12:58;;;;;;;10.70;4.20;;;;;;;40.34;33.41;101114.09;106454;1256;60461;-89
2023/08/19 12:15:47;;;;;;;6.70;4.40;;;;;;;40.31;32.83;101110.96;106650;1253;60507;-91
2023/08/19 12:18:35;;;;;;;4.70;4.00;;;;;;;40.32;32.58;101113.61;106401;1257;65843;-90
2023/08/19 12:21:25;;;;;;;8.30;4.70;;;;;;;40.33;32.50;101113.84;106502;1253;60712;-90
2023/08/19 12:24:13;;;;;;;7.20;3.70;;;;;;;40.40;32.36;101112.41;106543;1266;63699;-89
2023/08/19 12:27:02;;;;;;;7.90;4.10;;;;;;;40.40;32.29;101113.30;106504;1254;60513;-91
2023/08/19 12:29:51;;;;;;;8.10;4.20;;;;;;;40.47;32.19;101110.16;106560;1257;59272;-90
2023/08/19 12:32:40;;;;;;;5.60;4.30;;;;;;;40.44;31.58;101107.83;106528;1257;65742;-90
2023/08/19 12:35:29;;;;;;;8.60;4.60;;;;;;;40.25;32.21;101107.34;106391;1260;60843;-88
2023/08/19 12:38:19;;;;;;;8.40;4.30;;;;;;;40.03;32.98;101103.87;106543;1253;66293;-89
2023/08/19 12:41:07;;;;;;;9.10;4.20;;;;;;;39.94;32.97;101103.66;106515;1258;60395;-88
2023/08/19 12:43:56;;;;;;;8.70;4.20;;;;;;;39.74;32.72;101104.48;106373;1256;59669;-88
2023/08/19 12:46:45;;;;;;;4.90;3.90;;;;;;;39.50;32.80;101101.52;106526;1256;65471;-91
2023/08/19 12:49:34;;;;;;;6.80;3.80;;;;;;;39.32;33.58;101100.20;106781;1257;61907;-89
2023/08/19 12:52:23;;;;;;;7.70;3.90;;;;;;;39.12;33.96;101096.36;106799;1253;65781;-91
2023/08/19 12:55:13;;;;;;;7.50;3.80;;;;;;;39.11;33.01;101095.98;106405;1253;60679;-89